Time;durP1;ratioP1;P1;durP2;ratioP2;P2;SDS_P1;SDS_P2;PMS_P1;PMS_P2;Temp;Humidity;BMP_temperature;BMP_pressure;BME280_temperature;BME280_humidity;BME280_pressure;Samples;Min_cycle;Max_cycle;Signal;HPM_P1;HPM_P2
2023/04/09 00:00:43;;;;;;;42.30;17.25;;;;;;;-148.88;100.00;77428.94;5054868;28;20040;-86
2023/04/09 00:03:09;;;;;;;41.17;16.42;;;;;;;-148.88;100.00;77575.25;5055544;28;20028;-87
2023/04/09 00:05:40;;;;;;;37.75;15.98;;;;;;;-148.88;100.00;77591.50;5059898;28;20025;-86
2023/04/09 00:08:06;;;;;;;48.92;17.27;;;;;;;-148.88;100.00;77601.66;5060138;28;20465;-86
2023/04/09 00:10:31;;;;;;;43.97;16.25;;;;;;;-148.88;100.00;77601.66;5056948;28;20027;-86
2023/04/09 00:12:57;;;;;;;39.05;16.42;;;;;;;-148.88;100.00;77609.81;5058327;28;20520;-86
2023/04/09 00:15:22;;;;;;;41.75;16.63;;;;;;;-148.88;100.00;77613.88;5056997;28;20021;-87
2023/04/09 00:17:47;;;;;;;40.40;16.83;;;;;;;-148.88;100.00;77617.94;5056114;28;20025;-86
2023/04/09 00:20:12;;;;;;;39.55;17.50;;;;;;;-148.88;100.00;77619.97;5055557;28;20115;-86
2023/04/09 00:22:38;;;;;;;56.38;34.40;;;;;;;-148.88;100.00;77624.03;5056053;28;20036;-86
2023/04/09 00:25:03;;;;;;;41.50;18.40;;;;;;;-148.88;100.00;77626.06;5056057;28;20379;-86
2023/04/09 00:27:29;;;;;;;39.47;16.85;;;;;;;-148.88;100.00;77634.19;5056078;28;20028;-86
2023/04/09 00:29:55;;;;;;;42.50;17.25;;;;;;;-148.88;100.00;77622.00;5055804;28;20036;-86
2023/04/09 00:32:20;;;;;;;48.28;18.33;;;;;;;-148.88;100.00;77636.22;5055447;28;20029;-86
2023/04/09 00:34:46;;;;;;;39.92;17.73;;;;;;;-148.88;100.00;77632.16;5055724;28;20108;-86
2023/04/09 00:37:11;;;;;;;40.88;16.73;;;;;;;-148.88;100.00;77630.13;5055355;28;20060;-86
2023/04/09 00:39:36;;;;;;;40.88;16.45;;;;;;;-148.88;100.00;77634.19;5056470;28;20061;-87
2023/04/09 00:42:01;;;;;;;44.97;17.20;;;;;;;-148.88;100.00;77634.19;5055569;28;20458;-86
2023/04/09 00:44:27;;;;;;;41.92;17.55;;;;;;;-148.88;100.00;77636.22;5054314;28;20017;-86
2023/04/09 00:46:54;;;;;;;46.80;18.20;;;;;;;-148.88;100.00;77638.25;5055392;28;20016;-86
2023/04/09 00:49:20;;;;;;;45.38;17.60;;;;;;;-148.88;100.00;77628.09;5054957;28;20024;-86
2023/04/09 00:51:46;;;;;;;43.17;18.67;;;;;;;-148.88;100.00;77626.06;5054110;28;20032;-85
2023/04/09 00:54:12;;;;;;;40.65;18.33;;;;;;;-148.88;100.00;77634.19;5054993;28;20055;-86
2023/04/09 00:56:37;;;;;;;41.95;17.70;;;;;;;-148.88;100.00;77640.28;5054073;28;20020;-86
2023/04/09 00:59:03;;;;;;;38.88;17.73;;;;;;;-148.88;100.00;77642.31;5054582;28;20025;-86
2023/04/09 01:01:28;;;;;;;44.22;16.75;;;;;;;-148.88;100.00;77650.44;5054776;28;20029;-86
2023/04/09 01:03:54;;;;;;;44.55;18.92;;;;;;;-148.88;100.00;77646.38;5054207;28;20020;-86
2023/04/09 01:06:47;;;;;;;40.22;16.10;;;;;;;-148.88;100.00;77648.41;5054621;28;20036;-85
2023/04/09 01:09:23;;;;;;;43.08;17.77;;;;;;;-148.88;100.00;77652.47;5054621;28;20034;-86
2023/04/09 01:12:22;;;;;;;42.28;18.02;;;;;;;-148.88;100.00;77650.44;5054356;28;20438;-86
2023/04/09 01:14:59;;;;;;;41.35;16.88;;;;;;;-148.88;100.00;77650.44;5053735;28;20491;-86
2023/04/09 01:17:43;;;;;;;42.22;17.73;;;;;;;-148.88;100.00;77654.50;5053829;28;20029;-85
2023/04/09 01:20:21;;;;;;;45.78;18.02;;;;;;;-148.88;100.00;77668.72;5052924;28;20116;-85
2023/04/09 01:23:14;;;;;;;40.40;17.55;;;;;;;-148.88;100.00;77678.91;5054103;28;20024;-85
2023/04/09 01:25:58;;;;;;;44.25;17.77;;;;;;;-148.88;100.00;77670.75;5053672;28;20104;-85
2023/04/09 01:28:31;;;;;;;;;;;;;;;-148.88;100.00;77678.91;5054158;28;20025;-85
2023/04/09 01:31:00;;;;;;;40.92;16.83;;;;;;;-148.88;100.00;77687.03;5052139;28;20000;-85
2023/04/09 01:33:28;;;;;;;46.13;18.77;;;;;;;-148.88;100.00;77691.09;5053712;28;20020;-85
2023/04/09 01:35:54;;;;;;;46.38;17.38;;;;;;;-148.88;100.00;77687.03;5053292;28;20431;-85
2023/04/09 01:38:21;;;;;;;40.92;17.33;;;;;;;-148.88;100.00;77687.03;5052357;28;20122;-85
2023/04/09 01:40:48;;;;;;;43.95;18.73;;;;;;;-148.88;100.00;77691.09;5052696;28;20024;-85
2023/04/09 01:43:14;;;;;;;42.72;17.58;;;;;;;-148.88;100.00;77691.09;5052131;28;20403;-87
2023/04/09 01:45:40;;;;;;;49.83;18.45;;;;;;;-148.88;100.00;77699.22;5052605;28;20071;-86
2023/04/09 01:48:06;;;;;;;41.10;18.00;;;;;;;-148.88;100.00;77701.25;5053965;28;20052;-86
2023/04/09 01:50:31;;;;;;;49.63;20.25;;;;;;;-148.88;100.00;77697.19;5055463;28;20471;-85
2023/04/09 01:52:58;;;;;;;47.30;19.33;;;;;;;-148.88;100.00;77695.16;5052573;28;20027;-86
2023/04/09 01:55:23;;;;;;;49.35;19.08;;;;;;;-148.88;100.00;77689.06;5053983;28;20017;-86
2023/04/09 01:57:48;;;;;;;45.55;19.50;;;;;;;-148.88;100.00;77695.16;5054918;28;20035;-86
2023/04/09 02:00:14;;;;;;;47.80;19.35;;;;;;;-148.88;100.00;77697.19;5054549;28;20422;-86
2023/04/09 02:02:47;;;;;;;52.90;19.63;;;;;;;-148.88;100.00;77701.25;5052362;28;20479;-86
2023/04/09 02:05:16;;;;;;;48.08;19.67;;;;;;;-148.88;100.00;77709.38;5053926;28;20024;-86
2023/04/09 02:07:46;;;;;;;48.58;20.25;;;;;;;-148.88;100.00;77711.41;5051961;28;20029;-86
2023/04/09 02:10:12;;;;;;;41.60;18.77;;;;;;;-148.88;100.00;77707.34;5053402;28;20029;-86
2023/04/09 02:12:47;;;;;;;47.65;20.55;;;;;;;-148.88;100.00;77715.47;5053339;28;20052;-86
2023/04/09 02:15:13;;;;;;;49.42;18.63;;;;;;;-148.88;100.00;77713.44;5053102;28;20490;-86
2023/04/09 02:17:38;;;;;;;48.05;19.77;;;;;;;-148.88;100.00;77713.44;5052979;28;20028;-86
2023/04/09 02:20:04;;;;;;;47.30;18.88;;;;;;;-148.88;100.00;77727.66;5052993;28;20380;-86
2023/04/09 02:22:29;;;;;;;46.45;19.92;;;;;;;-148.88;100.00;77719.53;5053073;28;20028;-86
2023/04/09 02:24:54;;;;;;;51.58;21.08;;;;;;;-148.88;100.00;77723.59;5052090;28;20033;-86
2023/04/09 02:27:20;;;;;;;50.17;20.75;;;;;;;-148.88;100.00;77733.75;5053615;28;20368;-86
2023/04/09 02:29:45;;;;;;;43.97;18.70;;;;;;;-148.88;100.00;77731.72;5053126;28;20495;-86
2023/04/09 02:32:10;;;;;;;50.47;19.20;;;;;;;-148.88;100.00;77737.81;5052069;28;20483;-85
2023/04/09 02:34:35;;;;;;;44.95;18.88;;;;;;;-148.88;100.00;77719.53;5051569;28;20033;-86
2023/04/09 02:37:01;;;;;;;44.22;18.10;;;;;;;-148.88;100.00;77739.84;5053095;28;20391;-86
2023/04/09 02:39:26;;;;;;;45.45;19.10;;;;;;;-148.88;100.00;77750.03;5052890;28;20035;-85
2023/04/09 02:41:51;;;;;;;49.95;20.27;;;;;;;-148.88;100.00;77752.06;5051332;28;20415;-86
2023/04/09 02:44:17;;;;;;;45.28;20.38;;;;;;;-148.88;100.00;77750.03;5052711;28;20061;-85
2023/04/09 02:46:43;;;;;;;44.70;19.17;;;;;;;-148.88;100.00;77748.00;5055055;28;20032;-86
2023/04/09 02:49:08;;;;;;;49.40;20.83;;;;;;;-148.88;100.00;77752.06;5052575;28;20506;-86
2023/04/09 02:51:34;;;;;;;53.17;22.48;;;;;;;-148.88;100.00;77750.03;5052847;28;20021;-85
2023/04/09 02:54:00;;;;;;;42.72;19.02;;;;;;;-148.88;100.00;77748.00;5051378;28;20056;-85
2023/04/09 02:56:25;;;;;;;52.13;20.90;;;;;;;-148.88;100.00;77748.00;5051362;28;20501;-86
2023/04/09 02:58:52;;;;;;;44.80;20.40;;;;;;;-148.88;100.00;77743.94;5052276;28;20021;-86
2023/04/09 03:01:18;;;;;;;51.47;19.42;;;;;;;-148.88;100.00;77741.88;5052872;28;20514;-85
2023/04/09 03:03:43;;;;;;;40.08;18.52;;;;;;;-148.88;100.00;77748.00;5052278;28;20045;-85
2023/04/09 03:06:09;;;;;;;54.88;20.55;;;;;;;-148.88;100.00;77743.94;5052251;28;20024;-86
2023/04/09 03:08:34;;;;;;;49.08;19.67;;;;;;;-148.88;100.00;77750.03;5051516;28;20094;-86
2023/04/09 03:11:00;;;;;;;60.30;22.52;;;;;;;-148.88;100.00;77750.03;5051554;28;20023;-85
2023/04/09 03:13:26;;;;;;;43.75;18.90;;;;;;;-148.88;100.00;77752.06;5052614;28;20028;-85
2023/04/09 03:15:52;;;;;;;49.22;20.65;;;;;;;-148.88;100.00;77748.00;5056303;28;20090;-86
2023/04/09 03:18:17;;;;;;;47.55;21.25;;;;;;;-148.88;100.00;77748.00;5056276;28;20020;-85
2023/04/09 03:20:43;;;;;;;48.00;21.85;;;;;;;-148.88;100.00;77750.03;5056208;28;20029;-85
2023/04/09 03:23:09;;;;;;;50.42;20.77;;;;;;;-148.88;100.00;77748.00;5054758;28;20029;-86
2023/04/09 03:25:34;;;;;;;54.92;21.48;;;;;;;-148.88;100.00;77743.94;5054808;28;20132;-85
2023/04/09 03:27:59;;;;;;;56.63;22.55;;;;;;;-148.88;100.00;77743.94;5056282;28;20577;-85
2023/04/09 03:30:25;;;;;;;57.70;22.45;;;;;;;-148.88;100.00;77756.13;5054999;28;20028;-85
2023/04/09 03:32:50;;;;;;;60.63;23.00;;;;;;;-148.88;100.00;77760.19;5055931;28;20379;-86
2023/04/09 03:35:15;;;;;;;55.25;22.13;;;;;;;-148.88;100.00;77768.31;5056972;28;20025;-86
2023/04/09 03:37:41;;;;;;;56.42;21.60;;;;;;;-148.88;100.00;77764.25;5055804;28;20073;-87
2023/04/09 03:40:06;;;;;;;52.63;22.95;;;;;;;-148.88;100.00;77770.34;5057821;28;20498;-86
2023/04/09 03:42:33;;;;;;;74.65;24.83;;;;;;;-148.88;100.00;77772.38;5057614;28;20032;-87
2023/04/09 03:44:59;;;;;;;62.92;24.55;;;;;;;-148.88;100.00;77776.44;5058786;28;20391;-87
2023/04/09 03:47:24;;;;;;;69.30;24.05;;;;;;;-148.88;100.00;77784.56;5055080;28;20032;-85
2023/04/09 03:49:49;;;;;;;81.75;25.42;;;;;;;-148.88;100.00;77778.47;5054884;28;20112;-87
2023/04/09 03:52:15;;;;;;;159.27;27.50;;;;;;;-148.88;100.00;77790.66;5056233;28;20395;-87
2023/04/09 03:54:42;;;;;;;82.05;26.27;;;;;;;-148.88;100.00;77796.75;5055670;28;20032;-86
2023/04/09 03:57:07;;;;;;;70.22;24.48;;;;;;;-148.88;100.00;77798.78;5055969;28;20025;-86
2023/04/09 03:59:32;;;;;;;65.10;22.88;;;;;;;-148.88;100.00;77804.88;5055840;28;20120;-87
2023/04/09 04:01:58;;;;;;;64.18;24.45;;;;;;;-148.88;100.00;77804.88;5056198;28;20087;-88
2023/04/09 04:04:23;;;;;;;55.03;21.98;;;;;;;-148.88;100.00;77796.75;5055538;28;20382;-88
2023/04/09 04:06:48;;;;;;;60.65;23.90;;;;;;;-148.88;100.00;77784.56;5055767;28;20025;-87
2023/04/09 04:09:13;;;;;;;65.90;23.30;;;;;;;-148.88;100.00;77808.97;5055603;28;20032;-88
2023/04/09 04:11:39;;;;;;;50.60;22.42;;;;;;;-148.88;100.00;77813.03;5055675;28;20468;-87
2023/04/09 04:14:04;;;;;;;60.00;21.40;;;;;;;-148.88;100.00;77682.97;5055223;28;20032;-85
2023/04/09 04:16:29;;;;;;;55.38;21.40;;;;;;;-148.88;100.00;77632.16;5053828;28;20120;-86
2023/04/09 04:18:55;;;;;;;66.63;22.88;;;;;;;-148.88;100.00;77780.50;5056088;28;20169;-85
2023/04/09 04:21:20;;;;;;;72.43;26.17;;;;;;;-148.88;100.00;77798.78;5055468;28;20471;-86
2023/04/09 04:23:45;;;;;;;63.17;24.73;;;;;;;-148.88;100.00;77806.94;5054246;28;20021;-87
2023/04/09 04:26:11;;;;;;;74.35;25.83;;;;;;;-148.88;100.00;77813.03;5054319;28;20119;-86
2023/04/09 04:28:37;;;;;;;77.70;25.23;;;;;;;-148.88;100.00;77817.09;5054720;28;20053;-86
2023/04/09 04:31:06;;;;;;;85.22;25.92;;;;;;;-148.88;100.00;77825.22;5054795;28;20025;-85
2023/04/09 04:33:31;;;;;;;70.05;23.30;;;;;;;-148.88;100.00;77837.41;5054174;28;20093;-85
2023/04/09 04:36:10;;;;;;;113.25;27.25;;;;;;;-148.88;100.00;77853.66;5055149;28;20120;-87
2023/04/09 04:38:37;;;;;;;124.45;28.67;;;;;;;-148.88;100.00;77869.94;5054911;28;20035;-85
2023/04/09 04:41:02;;;;;;;156.73;28.05;;;;;;;-148.88;100.00;77876.03;5055159;28;20024;-86
2023/04/09 04:43:27;;;;;;;202.05;30.60;;;;;;;-148.88;100.00;77894.31;5054554;28;20182;-85
2023/04/09 04:45:54;;;;;;;168.82;30.13;;;;;;;-148.88;100.00;77896.34;5055095;28;20017;-84
2023/04/09 04:48:19;;;;;;;157.70;30.30;;;;;;;-148.88;100.00;77884.16;5054776;28;20430;-85
2023/04/09 04:50:45;;;;;;;142.27;30.75;;;;;;;-148.88;100.00;77894.31;5052895;28;20462;-85
2023/04/09 04:53:10;;;;;;;178.20;29.40;;;;;;;-148.88;100.00;77904.47;5054181;28;20029;-85
2023/04/09 04:55:38;;;;;;;166.13;29.65;;;;;;;-148.88;100.00;77910.56;5054292;28;20057;-85
2023/04/09 04:58:03;;;;;;;101.82;27.60;;;;;;;-148.88;100.00;77902.44;5054318;28;20115;-85
2023/04/09 05:00:28;;;;;;;200.80;32.35;;;;;;;-148.88;100.00;77906.50;5054409;28;20475;-86
2023/04/09 05:02:54;;;;;;;127.20;27.63;;;;;;;-148.88;100.00;77898.38;5054952;28;20077;-83
2023/04/09 05:05:19;;;;;;;91.07;25.73;;;;;;;-148.88;100.00;77888.22;5054384;28;20025;-84
2023/04/09 05:07:44;;;;;;;73.97;23.02;;;;;;;-148.88;100.00;77878.06;5054086;28;20096;-84
2023/04/09 05:10:10;;;;;;;92.05;27.38;;;;;;;-148.88;100.00;77878.06;5054269;28;20021;-84
2023/04/09 05:12:35;;;;;;;118.57;27.95;;;;;;;-148.88;100.00;77876.03;5054144;28;20027;-85
2023/04/09 05:15:00;;;;;;;159.93;29.10;;;;;;;-148.88;100.00;77880.09;5053638;28;20029;-85
2023/04/09 05:17:26;;;;;;;87.63;25.58;;;;;;;-148.88;100.00;77880.09;5052621;28;20426;-85
2023/04/09 05:19:52;;;;;;;151.65;28.60;;;;;;;-148.88;100.00;77874.00;5054040;28;20028;-85
2023/04/09 05:22:17;;;;;;;154.57;30.13;;;;;;;-148.88;100.00;77874.00;5054213;28;20032;-85
2023/04/09 05:24:43;;;;;;;187.27;33.75;;;;;;;-148.88;100.00;77886.19;5054001;28;20021;-84
2023/04/09 05:27:08;;;;;;;261.48;36.83;;;;;;;-148.88;100.00;77882.13;5053873;28;20032;-84
2023/04/09 05:29:33;;;;;;;162.50;33.22;;;;;;;-148.88;100.00;77878.06;5054008;28;20455;-84
2023/04/09 05:31:59;;;;;;;101.20;27.42;;;;;;;-148.88;100.00;77857.72;5054719;28;20111;-85
2023/04/09 05:34:24;;;;;;;175.65;31.63;;;;;;;-148.88;100.00;77861.78;5054303;28;20056;-84
2023/04/09 05:36:49;;;;;;;183.70;30.80;;;;;;;-148.88;100.00;77853.66;5053638;28;20035;-84
2023/04/09 05:39:15;;;;;;;156.40;32.88;;;;;;;-148.88;100.00;77859.75;5054095;28;20111;-84
2023/04/09 05:41:40;;;;;;;212.13;34.53;;;;;;;-148.88;100.00;77861.78;5055409;28;20025;-85
2023/04/09 05:44:06;;;;;;;139.95;30.40;;;;;;;-148.88;100.00;77845.53;5054934;28;20108;-85
2023/04/09 05:46:31;;;;;;;249.15;37.65;;;;;;;-148.88;100.00;77857.72;5054486;28;20023;-85
2023/04/09 05:48:56;;;;;;;167.18;33.05;;;;;;;-148.88;100.00;77827.25;5053679;28;20051;-84
2023/04/09 05:51:22;;;;;;;121.60;32.20;;;;;;;-148.88;100.00;77817.09;5052465;28;20085;-85
2023/04/09 05:53:47;;;;;;;119.57;30.10;;;;;;;-148.88;100.00;77808.97;5053347;28;20071;-85
2023/04/09 05:56:14;;;;;;;219.98;36.70;;;;;;;-148.88;100.00;77825.22;5053459;28;20025;-84
2023/04/09 05:58:39;;;;;;;247.80;37.22;;;;;;;-148.88;100.00;77835.38;5052656;28;20032;-84
2023/04/09 06:01:05;;;;;;;231.60;35.80;;;;;;;-148.88;100.00;77841.47;5052910;28;20024;-84
2023/04/09 06:03:30;;;;;;;117.28;28.98;;;;;;;-148.88;100.00;77825.22;5053419;28;20033;-84
2023/04/09 06:05:55;;;;;;;120.38;31.20;;;;;;;-148.88;100.00;77806.94;5053213;28;20472;-84
2023/04/09 06:08:20;;;;;;;140.20;29.52;;;;;;;-148.88;100.00;77796.75;5052726;28;20016;-84
2023/04/09 06:10:46;;;;;;;136.75;33.35;;;;;;;-148.88;100.00;77792.69;5054150;28;20033;-85
2023/04/09 06:13:11;;;;;;;147.30;31.95;;;;;;;-148.88;100.00;77792.69;5054237;28;20021;-84
2023/04/09 06:15:37;;;;;;;194.15;32.70;;;;;;;-148.88;100.00;77790.66;5053441;28;20047;-84
2023/04/09 06:18:03;;;;;;;109.00;30.13;;;;;;;-148.88;100.00;77794.72;5053523;28;20025;-83
2023/04/09 06:20:28;;;;;;;152.93;31.88;;;;;;;-148.88;100.00;77772.38;5053592;28;20025;-82
2023/04/09 06:22:53;;;;;;;102.75;27.38;;;;;;;-148.88;100.00;77784.56;5053805;28;20024;-83
2023/04/09 06:25:19;;;;;;;77.35;26.27;;;;;;;-148.88;100.00;77768.31;5053765;28;20448;-83
2023/04/09 06:27:44;;;;;;;237.57;37.83;;;;;;;-148.88;100.00;77817.09;5053599;28;20031;-83
2023/04/09 06:30:10;;;;;;;228.80;37.28;;;;;;;-148.88;100.00;77794.72;5052222;28;20102;-83
2023/04/09 06:32:35;;;;;;;291.30;36.47;;;;;;;-148.88;100.00;77817.09;5053097;28;20494;-83
2023/04/09 06:35:00;;;;;;;156.82;31.33;;;;;;;-148.88;100.00;77800.81;5051011;28;20025;-83
2023/04/09 06:37:26;;;;;;;192.43;34.38;;;;;;;-148.88;100.00;77798.78;5051453;28;20028;-83
2023/04/09 06:39:51;;;;;;;103.38;28.63;;;;;;;-148.88;100.00;77776.44;5052662;28;20025;-83
2023/04/09 06:42:16;;;;;;;164.07;33.50;;;;;;;-148.88;100.00;77768.31;5052121;28;20045;-83
2023/04/09 06:44:41;;;;;;;156.80;32.72;;;;;;;-148.88;100.00;77735.78;5052815;28;20360;-83
2023/04/09 06:47:07;;;;;;;120.55;31.23;;;;;;;-148.88;100.00;77735.78;5053974;28;20029;-84
2023/04/09 06:49:33;;;;;;;148.63;30.98;;;;;;;-148.88;100.00;77743.94;5055323;28;20030;-83
2023/04/09 06:51:58;;;;;;;131.65;30.70;;;;;;;-148.88;100.00;77737.81;5056151;28;20025;-84
2023/04/09 06:54:24;;;;;;;126.25;30.60;;;;;;;-148.88;100.00;77687.03;5057386;28;20082;-84
2023/04/09 06:56:49;;;;;;;155.70;32.40;;;;;;;-148.88;100.00;77676.88;5055972;28;20086;-84
2023/04/09 06:59:15;;;;;;;153.40;29.42;;;;;;;-148.88;100.00;77703.28;5057560;28;20020;-84
2023/04/09 07:01:41;;;;;;;158.20;30.08;;;;;;;-148.88;100.00;77672.78;5057064;28;20025;-84
2023/04/09 07:04:07;;;;;;;171.95;31.38;;;;;;;-148.88;100.00;77727.66;5055779;28;20033;-85
2023/04/09 07:06:32;;;;;;;133.25;30.75;;;;;;;-148.88;100.00;77697.19;5055500;28;20398;-85
2023/04/09 07:08:57;;;;;;;275.45;41.78;;;;;;;-148.88;100.00;77725.63;5055880;28;20033;-86
2023/04/09 07:11:23;;;;;;;88.65;26.20;;;;;;;-148.88;100.00;77668.72;5056728;28;20028;-85
2023/04/09 07:13:48;;;;;;;143.35;28.88;;;;;;;-148.88;100.00;77638.25;5057008;28;20036;-86
2023/04/09 07:16:13;;;;;;;89.65;27.17;;;;;;;-148.88;100.00;77626.06;5058587;28;20024;-85
2023/04/09 07:18:39;;;;;;;256.20;40.50;;;;;;;-148.88;100.00;77644.34;5056816;28;20111;-85
2023/04/09 07:21:04;;;;;;;93.50;27.02;;;;;;;-148.88;100.00;77597.59;5056710;28;20128;-86
2023/04/09 07:23:32;;;;;;;83.95;28.33;;;;;;;-148.88;100.00;77609.81;5057632;28;20090;-86
2023/04/09 07:26:01;;;;;;;90.90;28.52;;;;;;;-148.88;100.00;77603.69;5059661;28;20028;-88
2023/04/09 07:28:26;;;;;;;96.82;28.88;;;;;;;-148.88;100.00;77636.22;5058839;28;20025;-87
2023/04/09 07:30:52;;;;;;;155.38;31.30;;;;;;;-148.88;100.00;77624.03;5056481;28;20025;-86
2023/04/09 07:33:17;;;;;;;119.13;27.90;;;;;;;-148.88;100.00;77622.00;5054945;28;20040;-86
2023/04/09 07:35:43;;;;;;;83.47;27.50;;;;;;;-148.88;100.00;77626.06;5056024;28;20020;-86
2023/04/09 07:38:08;;;;;;;89.22;26.08;;;;;;;-148.88;100.00;77534.63;5056060;28;20024;-86
2023/04/09 07:40:34;;;;;;;82.43;26.63;;;;;;;-148.88;100.00;77524.44;5056309;28;20028;-86
2023/04/09 07:42:59;;;;;;;114.07;28.13;;;;;;;-148.88;100.00;77601.66;5055865;28;20031;-87
2023/04/09 07:45:24;;;;;;;147.48;29.95;;;;;;;-148.88;100.00;77571.19;5056450;28;20112;-86
2023/04/09 07:47:50;;;;;;;171.85;32.50;;;;;;;-148.88;100.00;77573.22;5058619;28;20074;-87
2023/04/09 07:50:15;;;;;;;102.82;28.45;;;;;;;-148.88;100.00;77544.78;5057895;28;20047;-87
2023/04/09 07:52:41;;;;;;;80.97;28.98;;;;;;;-148.88;100.00;77526.47;5057625;28;20029;-87
2023/04/09 07:55:07;;;;;;;169.40;30.77;;;;;;;-148.88;100.00;77550.88;5055625;28;20043;-87
2023/04/09 07:57:32;;;;;;;67.05;25.02;;;;;;;-148.88;100.00;77593.53;5058747;28;20021;-88
2023/04/09 07:59:57;;;;;;;82.63;27.10;;;;;;;-148.88;100.00;77530.53;5057338;28;20393;-88
2023/04/09 08:02:23;;;;;;;73.28;26.08;;;;;;;-148.88;100.00;77528.50;5057682;28;20025;-87
2023/04/09 08:04:48;;;;;;;77.43;25.20;;;;;;;-148.88;100.00;77540.72;5057439;28;20391;-88
2023/04/09 08:07:14;;;;;;;66.68;25.60;;;;;;;-148.88;100.00;77540.72;5055896;28;20502;-87
2023/04/09 08:09:39;;;;;;;99.60;30.40;;;;;;;-148.88;100.00;77518.34;5056978;28;20155;-87
2023/04/09 08:12:04;;;;;;;86.45;26.85;;;;;;;-148.88;100.00;77520.38;5057900;28;20391;-86
2023/04/09 08:14:29;;;;;;;84.80;26.30;;;;;;;-148.88;100.00;77522.41;5067508;22;20102;-80
2023/04/09 08:16:55;;;;;;;66.70;25.63;;;;;;;-148.88;100.00;77508.19;5057096;28;20029;-77
2023/04/09 08:19:20;;;;;;;92.82;28.25;;;;;;;-148.88;100.00;77471.63;5058541;28;20032;-79
2023/04/09 08:21:47;;;;;;;62.03;25.23;;;;;;;-148.88;100.00;77483.81;5059509;28;20098;-79
2023/04/09 08:24:13;;;;;;;67.53;26.85;;;;;;;-148.88;100.00;77459.44;5058235;28;20029;-79
2023/04/09 08:26:39;;;;;;;76.45;26.92;;;;;;;-148.88;100.00;77439.09;5058618;28;20021;-80
2023/04/09 08:29:06;;;;;;;63.97;26.23;;;;;;;-148.88;100.00;77443.16;5057399;28;20044;-80
2023/04/09 08:31:31;;;;;;;62.28;25.30;;;;;;;-148.88;100.00;77435.03;5057929;28;20025;-80
2023/04/09 08:33:57;;;;;;;65.68;25.48;;;;;;;-148.88;100.00;77382.22;5059301;28;20039;-80
2023/04/09 08:36:22;;;;;;;72.10;26.48;;;;;;;-148.88;100.00;77406.59;5057897;28;20076;-80
2023/04/09 08:38:48;;;;;;;66.53;25.60;;;;;;;-148.88;100.00;77376.13;5058031;28;20036;-79
2023/04/09 08:41:21;;;;;;;64.05;25.13;;;;;;;-148.88;100.00;77361.88;5055577;28;20055;-80
2023/04/09 08:43:47;;;;;;;60.97;23.73;;;;;;;-148.88;100.00;77319.22;5053966;28;20024;-79
2023/04/09 08:46:15;;;;;;;56.65;25.45;;;;;;;-148.88;100.00;77365.94;5054294;28;20023;-80
2023/04/09 08:48:42;;;;;;;64.35;24.95;;;;;;;-148.88;100.00;77416.75;5055198;28;20082;-79
2023/04/09 08:51:12;;;;;;;57.63;23.65;;;;;;;-148.88;100.00;77414.72;5055147;28;20115;-79
2023/04/09 08:53:37;;;;;;;61.72;25.30;;;;;;;-148.88;100.00;77410.66;5056889;28;20021;-80
2023/04/09 08:56:03;;;;;;;57.40;23.60;;;;;;;-148.88;100.00;77357.81;5058966;28;20024;-80
2023/04/09 08:58:28;;;;;;;60.25;25.27;;;;;;;-148.88;100.00;77331.41;5059237;28;20390;-80
2023/04/09 09:00:53;;;;;;;54.38;22.13;;;;;;;-148.88;100.00;77276.53;5059273;28;20028;-81
2023/04/09 09:03:19;;;;;;;46.80;22.70;;;;;;;-148.88;100.00;77296.88;5058315;28;20029;-81
2023/04/09 09:05:45;;;;;;;52.75;23.45;;;;;;;-148.88;100.00;77282.63;5058050;28;20063;-80
2023/04/09 09:08:12;;;;;;;54.55;22.83;;;;;;;-148.88;100.00;77227.78;5059073;28;20025;-80
2023/04/09 09:10:43;;;;;;;55.22;22.80;;;;;;;-148.88;100.00;77179.00;5058586;28;20029;-81
2023/04/09 09:13:22;;;;;;;50.50;23.00;;;;;;;-148.88;100.00;77154.63;5057580;28;20104;-80
2023/04/09 09:15:53;;;;;;;44.92;20.95;;;;;;;-148.88;100.00;77215.59;5058395;28;20025;-82
2023/04/09 09:18:19;;;;;;;49.53;21.83;;;;;;;-148.88;100.00;77195.25;5052868;28;20031;-80
2023/04/09 09:20:45;;;;;;;44.55;22.27;;;;;;;-148.88;100.00;77201.34;5054733;28;20100;-81
2023/04/09 09:23:10;;;;;;;43.35;20.33;;;;;;;-148.88;100.00;77128.22;5056937;28;20021;-81
2023/04/09 09:25:40;;;;;;;43.00;19.75;;;;;;;-148.88;100.00;77150.56;5054691;28;20024;-79
2023/04/09 09:28:10;;;;;;;41.72;19.50;;;;;;;-148.88;100.00;77105.84;5056663;28;20017;-77
2023/04/09 09:30:38;;;;;;;45.95;21.30;;;;;;;-148.88;100.00;77069.28;5054888;28;20025;-77
2023/04/09 09:33:10;;;;;;;47.38;32.90;;;;;;;-148.88;100.00;77040.84;5054362;28;20025;-77
2023/04/09 09:35:50;;;;;;;41.30;21.27;;;;;;;-148.88;100.00;77034.75;5054443;28;20024;-77
2023/04/09 09:38:16;;;;;;;44.38;20.83;;;;;;;-148.88;100.00;76959.56;5054349;28;20036;-78
2023/04/09 09:40:41;;;;;;;42.92;19.58;;;;;;;-148.88;100.00;76943.31;5053442;28;20017;-78
2023/04/09 09:43:07;;;;;;;45.00;31.73;;;;;;;-148.88;100.00;76955.50;5053133;28;20060;-77
2023/04/09 09:45:32;;;;;;;43.00;19.35;;;;;;;-148.88;98.92;76916.91;5052807;28;20092;-77
2023/04/09 09:47:58;;;;;;;40.17;29.23;;;;;;;-148.88;99.21;76866.09;5053769;28;20476;-79
2023/04/09 09:50:24;;;;;;;42.45;29.15;;;;;;;-148.88;97.66;76841.72;5054582;28;20028;-77
2023/04/09 09:52:53;;;;;;;42.33;19.08;;;;;;;-148.88;97.00;76829.53;5054563;28;20049;-77
2023/04/09 09:55:21;;;;;;;40.03;28.30;;;;;;;-148.88;96.79;76801.09;5054345;28;20023;-77
2023/04/09 09:57:48;;;;;;;41.58;28.70;;;;;;;-148.88;92.75;76736.06;5054071;28;20040;-78
2023/04/09 10:00:14;;;;;;;35.45;26.65;;;;;;;-148.88;91.74;76695.44;5052494;28;20021;-77
2023/04/09 10:02:46;;;;;;;37.17;27.85;;;;;;;-148.88;93.79;76715.75;5061550;22;20045;-86
2023/04/09 10:05:13;;;;;;;38.37;27.53;;;;;;;-148.88;91.96;76699.50;5053066;28;20028;-86
2023/04/09 10:07:39;;;;;;;38.05;27.02;;;;;;;-148.88;89.08;76679.19;5051897;28;20025;-87
2023/04/09 10:10:06;;;;;;;33.65;25.02;;;;;;;-148.88;89.12;76636.53;5053063;28;20025;-86
2023/04/09 10:12:32;;;;;;;33.42;24.15;;;;;;;-148.88;87.13;76654.81;5053105;28;20479;-86
2023/04/09 10:15:03;;;;;;;31.73;24.75;;;;;;;-148.88;89.45;76622.31;5053503;28;20027;-87
2023/04/09 10:17:29;;;;;;;33.22;24.33;;;;;;;-148.88;87.02;76587.75;5052187;28;20115;-86
2023/04/09 10:20:09;;;;;;;30.85;23.75;;;;;;;-148.88;82.86;76534.94;5051787;28;20163;-86
2023/04/09 10:22:35;;;;;;;30.88;24.13;;;;;;;-148.88;86.17;76488.22;5053081;28;20028;-87
2023/04/09 10:25:02;;;;;;;31.88;23.60;;;;;;;-148.88;81.39;76455.72;5053338;28;20017;-87
2023/04/09 10:27:27;;;;;;;28.75;21.38;;;;;;;-148.88;77.56;76457.75;5053079;28;20035;-87
2023/04/09 10:29:53;;;;;;;27.20;20.48;;;;;;;-148.88;79.31;76400.84;5051604;28;20020;-87
2023/04/09 10:32:20;;;;;;;25.10;19.15;;;;;;;-148.88;73.24;76394.75;5051547;28;20037;-86
2023/04/09 10:34:45;;;;;;;26.40;19.70;;;;;;;-148.88;75.85;76467.91;5052709;28;20459;-89
2023/04/09 10:37:24;;;;;;;25.23;19.55;;;;;;;-148.88;78.54;76459.78;5056220;28;20111;-85
2023/04/09 10:39:51;;;;;;;21.98;17.05;;;;;;;-148.88;70.57;76467.91;5055907;28;20029;-85
2023/04/09 10:42:25;;;;;;;23.30;18.67;;;;;;;-148.88;70.90;76378.50;5052693;28;20017;-85
2023/04/09 10:45:07;;;;;;;28.38;21.08;;;;;;;-148.88;69.86;76301.31;5051411;28;20053;-85
2023/04/09 10:47:35;;;;;;;24.17;18.25;;;;;;;-148.88;68.20;76325.69;5051575;28;20025;-85
2023/04/09 10:50:13;;;;;;;22.63;17.77;;;;;;;-148.88;65.39;76341.94;5053854;28;20501;-86